Terminal Aerodrome Forecast
Issued by NWS

Home | Current Version | Previous Version | Text Only | Print | Product List | Glossary On
Versions: 1 2 3 4 5 6 7 8 9 10 11 12 13 14 15 16 17 18
000
FTUS45 KFGZ 242300
TAFGCN
TAF
KGCN 242323Z 2500/2524 24007KT P6SM SKC
     FM250100 VRB04KT P6SM SKC
     FM250700 00000KT 4SM FU SKC
     FM251500 VRB05KT P6SM FEW200
     FM251800 22014G22KT P6SM FEW060 SCT200=

USA.gov is the U.S. government's official web portal to all federal, state and local government web resources and services.